sensor_id;sensor_type;location;lat;lon;timestamp;temperature;humidity
36816;DHT22;71982;52.294;6.760;2024-01-15T00:01:21;1.50;99.90
36816;DHT22;71982;52.294;6.760;2024-01-15T00:03:47;1.50;99.90
36816;DHT22;71982;52.294;6.760;2024-01-15T00:06:16;1.50;99.90
36816;DHT22;71982;52.294;6.760;2024-01-15T00:08:42;1.50;99.90
36816;DHT22;71982;52.294;6.760;2024-01-15T00:11:09;1.50;99.90
36816;DHT22;71982;52.294;6.760;2024-01-15T00:13:36;1.40;99.90
36816;DHT22;71982;52.294;6.760;2024-01-15T00:16:04;1.40;99.90
36816;DHT22;71982;52.294;6.760;2024-01-15T00:18:31;1.40;99.90
36816;DHT22;71982;52.294;6.760;2024-01-15T00:20:58;1.40;99.90
36816;DHT22;71982;52.294;6.760;2024-01-15T00:23:26;1.30;99.90
36816;DHT22;71982;52.294;6.760;2024-01-15T00:25:52;1.30;99.90
36816;DHT22;71982;52.294;6.760;2024-01-15T00:28:19;1.30;99.90
36816;DHT22;71982;52.294;6.760;2024-01-15T00:30:46;1.30;99.90
36816;DHT22;71982;52.294;6.760;2024-01-15T00:33:13;1.30;99.90
36816;DHT22;71982;52.294;6.760;2024-01-15T00:35:40;1.20;99.90
36816;DHT22;71982;52.294;6.760;2024-01-15T00:38:07;1.20;99.90
36816;DHT22;71982;52.294;6.760;2024-01-15T00:40:35;1.20;99.90
36816;DHT22;71982;52.294;6.760;2024-01-15T00:43:03;1.20;99.90
36816;DHT22;71982;52.294;6.760;2024-01-15T00:45:30;1.20;99.90
36816;DHT22;71982;52.294;6.760;2024-01-15T00:47:57;1.20;99.90
36816;DHT22;71982;52.294;6.760;2024-01-15T00:50:25;1.20;99.90
36816;DHT22;71982;52.294;6.760;2024-01-15T00:52:51;1.20;99.90
36816;DHT22;71982;52.294;6.760;2024-01-15T00:55:18;1.20;99.90
36816;DHT22;71982;52.294;6.760;2024-01-15T00:57:46;1.20;99.90
36816;DHT22;71982;52.294;6.760;2024-01-15T01:00:14;1.10;99.90
36816;DHT22;71982;52.294;6.760;2024-01-15T01:02:40;1.10;99.90
36816;DHT22;71982;52.294;6.760;2024-01-15T01:05:07;1.10;99.90
36816;DHT22;71982;52.294;6.760;2024-01-15T01:07:34;1.10;99.90
36816;DHT22;71982;52.294;6.760;2024-01-15T01:10:01;1.00;99.90
36816;DHT22;71982;52.294;6.760;2024-01-15T01:12:28;1.00;99.90
36816;DHT22;71982;52.294;6.760;2024-01-15T01:14:56;1.00;99.90
36816;DHT22;71982;52.294;6.760;2024-01-15T01:17:25;1.00;99.90
36816;DHT22;71982;52.294;6.760;2024-01-15T01:19:52;1.10;99.90
36816;DHT22;71982;52.294;6.760;2024-01-15T01:22:18;1.00;99.90
36816;DHT22;71982;52.294;6.760;2024-01-15T01:24:45;1.00;99.90
36816;DHT22;71982;52.294;6.760;2024-01-15T01:27:12;0.90;99.90
36816;DHT22;71982;52.294;6.760;2024-01-15T01:29:38;1.00;99.90
36816;DHT22;71982;52.294;6.760;2024-01-15T01:32:07;1.00;99.90
36816;DHT22;71982;52.294;6.760;2024-01-15T01:34:40;1.00;99.90
36816;DHT22;71982;52.294;6.760;2024-01-15T01:37:07;1.00;99.90
36816;DHT22;71982;52.294;6.760;2024-01-15T01:39:34;1.00;99.90
36816;DHT22;71982;52.294;6.760;2024-01-15T01:42:01;1.00;99.90
36816;DHT22;71982;52.294;6.760;2024-01-15T01:44:28;0.90;99.90
36816;DHT22;71982;52.294;6.760;2024-01-15T01:46:54;1.00;99.90
36816;DHT22;71982;52.294;6.760;2024-01-15T01:49:23;0.90;99.90
36816;DHT22;71982;52.294;6.760;2024-01-15T01:51:51;1.00;99.90
36816;DHT22;71982;52.294;6.760;2024-01-15T01:54:18;1.00;99.90
36816;DHT22;71982;52.294;6.760;2024-01-15T01:56:47;1.00;99.90
36816;DHT22;71982;52.294;6.760;2024-01-15T01:59:14;0.90;99.90
36816;DHT22;71982;52.294;6.760;2024-01-15T02:01:41;1.00;99.90
36816;DHT22;71982;52.294;6.760;2024-01-15T02:04:09;1.00;99.90
36816;DHT22;71982;52.294;6.760;2024-01-15T02:06:37;1.00;99.90
36816;DHT22;71982;52.294;6.760;2024-01-15T02:09:04;1.10;99.90
36816;DHT22;71982;52.294;6.760;2024-01-15T02:11:31;1.00;99.90
36816;DHT22;71982;52.294;6.760;2024-01-15T02:13:58;1.10;99.90
36816;DHT22;71982;52.294;6.760;2024-01-15T02:16:25;1.10;99.90
36816;DHT22;71982;52.294;6.760;2024-01-15T02:18:51;1.10;99.90
36816;DHT22;71982;52.294;6.760;2024-01-15T02:21:18;1.20;99.90
36816;DHT22;71982;52.294;6.760;2024-01-15T02:23:46;1.20;99.90
36816;DHT22;71982;52.294;6.760;2024-01-15T02:26:14;1.10;99.90
36816;DHT22;71982;52.294;6.760;2024-01-15T02:28:41;1.10;99.90
36816;DHT22;71982;52.294;6.760;2024-01-15T02:31:09;1.10;99.90
36816;DHT22;71982;52.294;6.760;2024-01-15T02:33:36;1.10;99.90
36816;DHT22;71982;52.294;6.760;2024-01-15T02:36:03;1.10;99.90
36816;DHT22;71982;52.294;6.760;2024-01-15T02:38:30;1.00;99.90
36816;DHT22;71982;52.294;6.760;2024-01-15T02:40:58;1.00;99.90
36816;DHT22;71982;52.294;6.760;2024-01-15T02:43:25;1.00;99.90
36816;DHT22;71982;52.294;6.760;2024-01-15T02:45:52;1.10;99.90
36816;DHT22;71982;52.294;6.760;2024-01-15T02:48:19;1.00;99.90
36816;DHT22;71982;52.294;6.760;2024-01-15T02:50:45;1.10;99.90
36816;DHT22;71982;52.294;6.760;2024-01-15T02:53:12;1.10;99.90
36816;DHT22;71982;52.294;6.760;2024-01-15T02:55:39;1.10;99.90
36816;DHT22;71982;52.294;6.760;2024-01-15T02:58:07;1.20;99.90
36816;DHT22;71982;52.294;6.760;2024-01-15T03:00:34;1.30;99.90
36816;DHT22;71982;52.294;6.760;2024-01-15T03:03:01;1.20;99.90
36816;DHT22;71982;52.294;6.760;2024-01-15T03:05:28;1.20;99.90
36816;DHT22;71982;52.294;6.760;2024-01-15T03:07:54;1.20;99.90
36816;DHT22;71982;52.294;6.760;2024-01-15T03:10:21;1.10;99.90
36816;DHT22;71982;52.294;6.760;2024-01-15T03:12:48;1.00;99.90
36816;DHT22;71982;52.294;6.760;2024-01-15T03:15:16;1.10;99.90
36816;DHT22;71982;52.294;6.760;2024-01-15T03:17:43;1.00;99.90
36816;DHT22;71982;52.294;6.760;2024-01-15T03:20:11;1.00;99.90
36816;DHT22;71982;52.294;6.760;2024-01-15T03:22:38;1.00;99.90
36816;DHT22;71982;52.294;6.760;2024-01-15T03:25:07;1.10;99.90
36816;DHT22;71982;52.294;6.760;2024-01-15T03:27:33;1.20;99.90
36816;DHT22;71982;52.294;6.760;2024-01-15T03:30:00;1.30;99.90
36816;DHT22;71982;52.294;6.760;2024-01-15T03:32:29;1.40;99.90
36816;DHT22;71982;52.294;6.760;2024-01-15T03:34:56;1.40;99.90
36816;DHT22;71982;52.294;6.760;2024-01-15T03:37:22;1.50;99.90
36816;DHT22;71982;52.294;6.760;2024-01-15T03:39:49;1.40;99.90
36816;DHT22;71982;52.294;6.760;2024-01-15T03:42:16;1.40;99.90
36816;DHT22;71982;52.294;6.760;2024-01-15T03:44:43;1.40;99.90
36816;DHT22;71982;52.294;6.760;2024-01-15T03:47:10;1.30;99.90
36816;DHT22;71982;52.294;6.760;2024-01-15T03:49:38;1.30;99.90
36816;DHT22;71982;52.294;6.760;2024-01-15T03:52:05;1.30;99.90
36816;DHT22;71982;52.294;6.760;2024-01-15T03:54:32;1.30;99.90
36816;DHT22;71982;52.294;6.760;2024-01-15T03:56:58;1.20;99.90
36816;DHT22;71982;52.294;6.760;2024-01-15T03:59:26;1.20;99.90
36816;DHT22;71982;52.294;6.760;2024-01-15T04:01:52;1.20;99.90
36816;DHT22;71982;52.294;6.760;2024-01-15T04:04:19;1.30;99.90
36816;DHT22;71982;52.294;6.760;2024-01-15T04:06:47;1.20;99.90
36816;DHT22;71982;52.294;6.760;2024-01-15T04:09:14;1.20;99.90
36816;DHT22;71982;52.294;6.760;2024-01-15T04:11:41;1.10;99.90
36816;DHT22;71982;52.294;6.760;2024-01-15T04:14:08;1.10;99.90
36816;DHT22;71982;52.294;6.760;2024-01-15T04:16:34;1.00;99.90
36816;DHT22;71982;52.294;6.760;2024-01-15T04:19:01;1.00;99.90
36816;DHT22;71982;52.294;6.760;2024-01-15T04:21:28;1.00;99.90
36816;DHT22;71982;52.294;6.760;2024-01-15T04:23:56;0.90;99.90
36816;DHT22;71982;52.294;6.760;2024-01-15T04:26:23;0.90;99.90
36816;DHT22;71982;52.294;6.760;2024-01-15T04:28:50;1.00;99.90
36816;DHT22;71982;52.294;6.760;2024-01-15T04:31:23;1.00;99.90
36816;DHT22;71982;52.294;6.760;2024-01-15T04:33:50;1.20;99.90
36816;DHT22;71982;52.294;6.760;2024-01-15T04:36:17;1.20;99.90
36816;DHT22;71982;52.294;6.760;2024-01-15T04:38:44;1.30;99.90
36816;DHT22;71982;52.294;6.760;2024-01-15T04:41:13;1.30;99.90
36816;DHT22;71982;52.294;6.760;2024-01-15T04:43:40;1.30;99.90
36816;DHT22;71982;52.294;6.760;2024-01-15T04:46:07;1.30;99.90
36816;DHT22;71982;52.294;6.760;2024-01-15T04:48:35;1.30;99.90
36816;DHT22;71982;52.294;6.760;2024-01-15T04:51:04;1.20;99.90
36816;DHT22;71982;52.294;6.760;2024-01-15T04:53:31;1.20;99.90
36816;DHT22;71982;52.294;6.760;2024-01-15T04:55:57;1.20;99.90
36816;DHT22;71982;52.294;6.760;2024-01-15T04:58:25;1.20;99.90
36816;DHT22;71982;52.294;6.760;2024-01-15T05:00:52;1.20;99.90
36816;DHT22;71982;52.294;6.760;2024-01-15T05:03:20;1.30;99.90
36816;DHT22;71982;52.294;6.760;2024-01-15T05:05:46;1.30;99.90
36816;DHT22;71982;52.294;6.760;2024-01-15T05:08:13;1.30;99.90
36816;DHT22;71982;52.294;6.760;2024-01-15T05:10:40;1.30;99.90
36816;DHT22;71982;52.294;6.760;2024-01-15T05:13:07;1.30;99.90
36816;DHT22;71982;52.294;6.760;2024-01-15T05:15:35;1.30;99.90
36816;DHT22;71982;52.294;6.760;2024-01-15T05:18:02;1.40;99.90
36816;DHT22;71982;52.294;6.760;2024-01-15T05:20:28;1.30;99.90
36816;DHT22;71982;52.294;6.760;2024-01-15T05:22:55;1.40;99.90
36816;DHT22;71982;52.294;6.760;2024-01-15T05:25:22;1.40;99.90
36816;DHT22;71982;52.294;6.760;2024-01-15T05:27:49;1.40;99.90
36816;DHT22;71982;52.294;6.760;2024-01-15T05:30:16;1.40;99.90
36816;DHT22;71982;52.294;6.760;2024-01-15T05:32:44;1.30;99.90
36816;DHT22;71982;52.294;6.760;2024-01-15T05:35:11;1.30;99.90
36816;DHT22;71982;52.294;6.760;2024-01-15T05:37:41;1.30;99.90
36816;DHT22;71982;52.294;6.760;2024-01-15T05:40:08;1.30;99.90
36816;DHT22;71982;52.294;6.760;2024-01-15T05:42:35;1.20;99.90
36816;DHT22;71982;52.294;6.760;2024-01-15T05:45:02;1.20;99.90
36816;DHT22;71982;52.294;6.760;2024-01-15T05:47:30;1.20;99.90
36816;DHT22;71982;52.294;6.760;2024-01-15T05:50:00;1.20;99.90
36816;DHT22;71982;52.294;6.760;2024-01-15T05:52:26;1.30;99.90
36816;DHT22;71982;52.294;6.760;2024-01-15T05:54:53;1.40;99.90
36816;DHT22;71982;52.294;6.760;2024-01-15T05:57:20;1.30;99.90
36816;DHT22;71982;52.294;6.760;2024-01-15T05:59:47;1.30;99.90
36816;DHT22;71982;52.294;6.760;2024-01-15T06:02:13;1.20;99.90
36816;DHT22;71982;52.294;6.760;2024-01-15T06:04:40;1.20;99.90
36816;DHT22;71982;52.294;6.760;2024-01-15T06:07:08;1.20;99.90
36816;DHT22;71982;52.294;6.760;2024-01-15T06:09:35;1.10;99.90
36816;DHT22;71982;52.294;6.760;2024-01-15T06:12:02;1.10;99.90
36816;DHT22;71982;52.294;6.760;2024-01-15T06:14:29;1.10;99.90
36816;DHT22;71982;52.294;6.760;2024-01-15T06:16:56;1.20;99.90
36816;DHT22;71982;52.294;6.760;2024-01-15T06:19:23;1.10;99.90
36816;DHT22;71982;52.294;6.760;2024-01-15T06:21:49;1.10;99.90
36816;DHT22;71982;52.294;6.760;2024-01-15T06:24:17;1.20;99.90
36816;DHT22;71982;52.294;6.760;2024-01-15T06:26:46;1.20;99.90
36816;DHT22;71982;52.294;6.760;2024-01-15T06:29:13;1.20;99.90
36816;DHT22;71982;52.294;6.760;2024-01-15T06:31:40;1.20;99.90
36816;DHT22;71982;52.294;6.760;2024-01-15T06:34:06;1.20;99.90
36816;DHT22;71982;52.294;6.760;2024-01-15T06:36:33;1.20;99.90
36816;DHT22;71982;52.294;6.760;2024-01-15T06:39:00;1.10;99.90
36816;DHT22;71982;52.294;6.760;2024-01-15T06:41:28;1.00;99.90
36816;DHT22;71982;52.294;6.760;2024-01-15T06:43:55;1.00;99.90
36816;DHT22;71982;52.294;6.760;2024-01-15T06:46:22;1.00;99.90
36816;DHT22;71982;52.294;6.760;2024-01-15T06:48:49;1.00;99.90
36816;DHT22;71982;52.294;6.760;2024-01-15T06:51:16;0.90;99.90
36816;DHT22;71982;52.294;6.760;2024-01-15T06:53:43;1.00;99.90
36816;DHT22;71982;52.294;6.760;2024-01-15T06:56:09;1.00;99.90
36816;DHT22;71982;52.294;6.760;2024-01-15T06:58:38;1.00;99.90
36816;DHT22;71982;52.294;6.760;2024-01-15T07:01:04;1.10;99.90
36816;DHT22;71982;52.294;6.760;2024-01-15T07:03:31;1.10;99.90
36816;DHT22;71982;52.294;6.760;2024-01-15T07:05:58;1.10;99.90
36816;DHT22;71982;52.294;6.760;2024-01-15T07:08:25;1.10;99.90
36816;DHT22;71982;52.294;6.760;2024-01-15T07:10:52;1.00;99.90
36816;DHT22;71982;52.294;6.760;2024-01-15T07:13:18;1.00;99.90
36816;DHT22;71982;52.294;6.760;2024-01-15T07:15:46;1.00;99.90
36816;DHT22;71982;52.294;6.760;2024-01-15T07:18:13;1.10;99.90
36816;DHT22;71982;52.294;6.760;2024-01-15T07:20:40;1.10;99.90
36816;DHT22;71982;52.294;6.760;2024-01-15T07:23:07;1.10;99.90
36816;DHT22;71982;52.294;6.760;2024-01-15T07:25:33;1.10;99.90
36816;DHT22;71982;52.294;6.760;2024-01-15T07:28:00;1.00;99.90
36816;DHT22;71982;52.294;6.760;2024-01-15T07:30:27;1.10;99.90
36816;DHT22;71982;52.294;6.760;2024-01-15T07:32:55;1.10;99.90
36816;DHT22;71982;52.294;6.760;2024-01-15T07:35:22;1.10;99.90
36816;DHT22;71982;52.294;6.760;2024-01-15T07:37:49;1.10;99.90
36816;DHT22;71982;52.294;6.760;2024-01-15T07:40:16;1.10;99.90
36816;DHT22;71982;52.294;6.760;2024-01-15T07:42:42;1.10;99.90
36816;DHT22;71982;52.294;6.760;2024-01-15T07:45:10;1.10;99.90
36816;DHT22;71982;52.294;6.760;2024-01-15T07:47:37;1.00;99.90
36816;DHT22;71982;52.294;6.760;2024-01-15T07:50:05;1.00;99.90
36816;DHT22;71982;52.294;6.760;2024-01-15T07:52:32;1.00;99.90
36816;DHT22;71982;52.294;6.760;2024-01-15T07:54:59;0.90;99.90
36816;DHT22;71982;52.294;6.760;2024-01-15T07:57:26;0.90;99.90
36816;DHT22;71982;52.294;6.760;2024-01-15T07:59:53;0.90;99.90
36816;DHT22;71982;52.294;6.760;2024-01-15T08:02:20;0.90;99.90
36816;DHT22;71982;52.294;6.760;2024-01-15T08:04:47;0.90;99.90
36816;DHT22;71982;52.294;6.760;2024-01-15T08:07:15;0.90;99.90
36816;DHT22;71982;52.294;6.760;2024-01-15T08:09:43;0.80;99.90
36816;DHT22;71982;52.294;6.760;2024-01-15T08:12:10;0.80;99.90
36816;DHT22;71982;52.294;6.760;2024-01-15T08:14:38;0.80;99.90
36816;DHT22;71982;52.294;6.760;2024-01-15T08:17:05;0.80;99.90
36816;DHT22;71982;52.294;6.760;2024-01-15T08:19:31;0.80;99.90
36816;DHT22;71982;52.294;6.760;2024-01-15T08:21:58;0.80;99.90
36816;DHT22;71982;52.294;6.760;2024-01-15T08:24:26;0.80;99.90
36816;DHT22;71982;52.294;6.760;2024-01-15T08:26:54;0.90;99.90
36816;DHT22;71982;52.294;6.760;2024-01-15T08:29:21;0.90;99.90
36816;DHT22;71982;52.294;6.760;2024-01-15T08:31:50;0.90;99.90
36816;DHT22;71982;52.294;6.760;2024-01-15T08:34:16;1.00;99.90
36816;DHT22;71982;52.294;6.760;2024-01-15T08:36:43;0.90;99.90
36816;DHT22;71982;52.294;6.760;2024-01-15T08:39:10;1.00;99.90
36816;DHT22;71982;52.294;6.760;2024-01-15T08:41:38;1.00;99.90
36816;DHT22;71982;52.294;6.760;2024-01-15T08:44:05;1.00;99.90
36816;DHT22;71982;52.294;6.760;2024-01-15T08:46:32;1.00;99.90
36816;DHT22;71982;52.294;6.760;2024-01-15T08:48:58;1.00;99.90
36816;DHT22;71982;52.294;6.760;2024-01-15T08:51:25;1.10;99.90
36816;DHT22;71982;52.294;6.760;2024-01-15T08:53:52;1.10;99.90
36816;DHT22;71982;52.294;6.760;2024-01-15T08:56:19;1.20;99.90
36816;DHT22;71982;52.294;6.760;2024-01-15T08:58:47;1.20;99.90
36816;DHT22;71982;52.294;6.760;2024-01-15T09:01:14;1.10;99.90
36816;DHT22;71982;52.294;6.760;2024-01-15T09:03:40;1.20;99.90
36816;DHT22;71982;52.294;6.760;2024-01-15T09:06:08;1.20;99.90
36816;DHT22;71982;52.294;6.760;2024-01-15T09:08:35;1.30;99.90
36816;DHT22;71982;52.294;6.760;2024-01-15T09:11:02;1.40;99.90
36816;DHT22;71982;52.294;6.760;2024-01-15T09:13:29;1.60;99.90
36816;DHT22;71982;52.294;6.760;2024-01-15T09:15:58;1.70;99.90
36816;DHT22;71982;52.294;6.760;2024-01-15T09:18:25;1.70;99.90
36816;DHT22;71982;52.294;6.760;2024-01-15T09:20:52;1.70;99.90
36816;DHT22;71982;52.294;6.760;2024-01-15T09:23:18;1.70;99.90
36816;DHT22;71982;52.294;6.760;2024-01-15T09:25:45;1.70;99.90
36816;DHT22;71982;52.294;6.760;2024-01-15T09:28:13;1.80;99.90
36816;DHT22;71982;52.294;6.760;2024-01-15T09:30:40;1.80;99.90
36816;DHT22;71982;52.294;6.760;2024-01-15T09:33:08;1.70;99.90
36816;DHT22;71982;52.294;6.760;2024-01-15T09:35:35;1.60;99.90
36816;DHT22;71982;52.294;6.760;2024-01-15T09:38:02;1.70;99.90
36816;DHT22;71982;52.294;6.760;2024-01-15T09:40:31;1.70;99.90
36816;DHT22;71982;52.294;6.760;2024-01-15T09:42:58;1.60;99.90
36816;DHT22;71982;52.294;6.760;2024-01-15T09:45:25;1.50;99.90
36816;DHT22;71982;52.294;6.760;2024-01-15T09:47:52;1.30;99.90
36816;DHT22;71982;52.294;6.760;2024-01-15T09:50:21;1.30;99.90
36816;DHT22;71982;52.294;6.760;2024-01-15T09:52:48;1.30;99.90
36816;DHT22;71982;52.294;6.760;2024-01-15T09:55:17;1.30;99.90
36816;DHT22;71982;52.294;6.760;2024-01-15T09:57:44;1.40;99.90
36816;DHT22;71982;52.294;6.760;2024-01-15T10:00:12;1.60;99.90
36816;DHT22;71982;52.294;6.760;2024-01-15T10:02:38;1.70;99.90
36816;DHT22;71982;52.294;6.760;2024-01-15T10:05:06;1.90;99.90
36816;DHT22;71982;52.294;6.760;2024-01-15T10:07:36;2.30;99.90
36816;DHT22;71982;52.294;6.760;2024-01-15T10:10:04;2.30;99.90
36816;DHT22;71982;52.294;6.760;2024-01-15T10:12:31;2.20;99.90
36816;DHT22;71982;52.294;6.760;2024-01-15T10:14:58;2.10;99.90
36816;DHT22;71982;52.294;6.760;2024-01-15T10:17:25;1.90;99.90
36816;DHT22;71982;52.294;6.760;2024-01-15T10:19:52;1.90;99.90
36816;DHT22;71982;52.294;6.760;2024-01-15T10:22:19;2.00;99.90
36816;DHT22;71982;52.294;6.760;2024-01-15T10:24:47;2.00;99.90
36816;DHT22;71982;52.294;6.760;2024-01-15T10:27:14;2.00;99.90
36816;DHT22;71982;52.294;6.760;2024-01-15T10:29:41;2.10;99.90
36816;DHT22;71982;52.294;6.760;2024-01-15T10:32:09;2.00;99.90
36816;DHT22;71982;52.294;6.760;2024-01-15T10:34:38;2.10;99.90
36816;DHT22;71982;52.294;6.760;2024-01-15T10:37:07;2.30;99.90
36816;DHT22;71982;52.294;6.760;2024-01-15T10:39:34;2.30;99.90
36816;DHT22;71982;52.294;6.760;2024-01-15T10:42:03;2.20;99.90
36816;DHT22;71982;52.294;6.760;2024-01-15T10:44:30;2.10;99.90
36816;DHT22;71982;52.294;6.760;2024-01-15T10:46:57;2.20;99.90
36816;DHT22;71982;52.294;6.760;2024-01-15T10:49:24;2.30;99.90
36816;DHT22;71982;52.294;6.760;2024-01-15T10:51:53;2.20;99.90
36816;DHT22;71982;52.294;6.760;2024-01-15T10:54:21;2.10;99.90
36816;DHT22;71982;52.294;6.760;2024-01-15T10:56:49;2.10;99.90
36816;DHT22;71982;52.294;6.760;2024-01-15T10:59:19;2.10;99.90
36816;DHT22;71982;52.294;6.760;2024-01-15T11:01:46;2.00;99.90
36816;DHT22;71982;52.294;6.760;2024-01-15T11:04:14;1.90;99.90
36816;DHT22;71982;52.294;6.760;2024-01-15T11:06:43;1.90;99.90
36816;DHT22;71982;52.294;6.760;2024-01-15T11:09:11;1.90;99.90
36816;DHT22;71982;52.294;6.760;2024-01-15T11:11:41;1.90;99.90
36816;DHT22;71982;52.294;6.760;2024-01-15T11:14:07;2.10;99.90
36816;DHT22;71982;52.294;6.760;2024-01-15T11:16:55;2.40;99.90
36816;DHT22;71982;52.294;6.760;2024-01-15T11:19:22;2.90;99.90
36816;DHT22;71982;52.294;6.760;2024-01-15T11:21:49;3.00;99.90
36816;DHT22;71982;52.294;6.760;2024-01-15T11:24:34;3.00;99.90
36816;DHT22;71982;52.294;6.760;2024-01-15T11:27:01;3.00;99.90
36816;DHT22;71982;52.294;6.760;2024-01-15T11:29:30;2.90;99.90
36816;DHT22;71982;52.294;6.760;2024-01-15T11:31:59;2.90;99.90
36816;DHT22;71982;52.294;6.760;2024-01-15T11:34:55;2.70;99.90
36816;DHT22;71982;52.294;6.760;2024-01-15T11:37:24;2.50;99.90
36816;DHT22;71982;52.294;6.760;2024-01-15T11:39:52;2.40;99.90
36816;DHT22;71982;52.294;6.760;2024-01-15T11:42:20;2.30;99.90
36816;DHT22;71982;52.294;6.760;2024-01-15T11:44:47;2.30;99.90
36816;DHT22;71982;52.294;6.760;2024-01-15T11:47:15;2.40;99.90
36816;DHT22;71982;52.294;6.760;2024-01-15T11:50:06;2.30;99.90
36816;DHT22;71982;52.294;6.760;2024-01-15T11:52:35;2.30;99.90
36816;DHT22;71982;52.294;6.760;2024-01-15T11:55:10;2.30;99.90
36816;DHT22;71982;52.294;6.760;2024-01-15T11:57:41;2.30;99.90
36816;DHT22;71982;52.294;6.760;2024-01-15T12:00:09;2.40;99.90
36816;DHT22;71982;52.294;6.760;2024-01-15T12:02:39;2.50;99.90
36816;DHT22;71982;52.294;6.760;2024-01-15T12:05:06;2.50;99.90
36816;DHT22;71982;52.294;6.760;2024-01-15T12:07:33;2.60;99.90
36816;DHT22;71982;52.294;6.760;2024-01-15T12:10:00;2.60;99.90
36816;DHT22;71982;52.294;6.760;2024-01-15T12:12:36;2.60;99.90
36816;DHT22;71982;52.294;6.760;2024-01-15T12:15:04;2.50;99.90
36816;DHT22;71982;52.294;6.760;2024-01-15T12:17:31;2.50;99.90
36816;DHT22;71982;52.294;6.760;2024-01-15T12:20:00;2.50;99.90
36816;DHT22;71982;52.294;6.760;2024-01-15T12:22:26;2.60;99.90
36816;DHT22;71982;52.294;6.760;2024-01-15T12:24:54;2.70;99.90
36816;DHT22;71982;52.294;6.760;2024-01-15T12:27:21;2.80;99.90
36816;DHT22;71982;52.294;6.760;2024-01-15T12:29:48;2.90;99.90
36816;DHT22;71982;52.294;6.760;2024-01-15T12:32:15;2.90;99.90
36816;DHT22;71982;52.294;6.760;2024-01-15T12:34:43;2.70;99.90
36816;DHT22;71982;52.294;6.760;2024-01-15T12:37:11;2.70;99.90
36816;DHT22;71982;52.294;6.760;2024-01-15T12:39:38;2.80;99.90
36816;DHT22;71982;52.294;6.760;2024-01-15T12:42:06;2.90;99.90
36816;DHT22;71982;52.294;6.760;2024-01-15T12:44:34;2.90;99.90
36816;DHT22;71982;52.294;6.760;2024-01-15T12:47:01;3.10;99.90
36816;DHT22;71982;52.294;6.760;2024-01-15T12:49:28;3.10;99.90
36816;DHT22;71982;52.294;6.760;2024-01-15T12:51:57;3.10;99.90
36816;DHT22;71982;52.294;6.760;2024-01-15T12:54:26;3.00;99.90
36816;DHT22;71982;52.294;6.760;2024-01-15T12:56:52;3.20;99.90
36816;DHT22;71982;52.294;6.760;2024-01-15T12:59:19;3.40;99.90
36816;DHT22;71982;52.294;6.760;2024-01-15T13:01:46;3.30;99.90
36816;DHT22;71982;52.294;6.760;2024-01-15T13:04:21;3.20;99.90
36816;DHT22;71982;52.294;6.760;2024-01-15T13:06:48;3.10;99.90
36816;DHT22;71982;52.294;6.760;2024-01-15T13:09:15;3.00;99.90
36816;DHT22;71982;52.294;6.760;2024-01-15T13:11:43;2.90;99.90
36816;DHT22;71982;52.294;6.760;2024-01-15T13:14:10;2.80;99.90
36816;DHT22;71982;52.294;6.760;2024-01-15T13:16:39;2.80;99.90
36816;DHT22;71982;52.294;6.760;2024-01-15T13:19:07;2.90;99.90
36816;DHT22;71982;52.294;6.760;2024-01-15T13:21:34;2.80;99.90
36816;DHT22;71982;52.294;6.760;2024-01-15T13:24:01;2.50;99.90
36816;DHT22;71982;52.294;6.760;2024-01-15T13:26:31;2.40;99.90
36816;DHT22;71982;52.294;6.760;2024-01-15T13:28:59;2.20;99.90
36816;DHT22;71982;52.294;6.760;2024-01-15T13:31:26;2.00;99.90
36816;DHT22;71982;52.294;6.760;2024-01-15T13:33:53;1.80;99.90
36816;DHT22;71982;52.294;6.760;2024-01-15T13:36:20;1.60;99.90
36816;DHT22;71982;52.294;6.760;2024-01-15T13:38:49;1.60;99.90
36816;DHT22;71982;52.294;6.760;2024-01-15T13:41:17;1.60;99.90
36816;DHT22;71982;52.294;6.760;2024-01-15T13:43:45;1.60;99.90
36816;DHT22;71982;52.294;6.760;2024-01-15T13:46:13;1.60;99.90
36816;DHT22;71982;52.294;6.760;2024-01-15T13:48:40;1.70;99.90
36816;DHT22;71982;52.294;6.760;2024-01-15T13:51:07;1.70;99.90
36816;DHT22;71982;52.294;6.760;2024-01-15T13:53:33;1.90;99.90
36816;DHT22;71982;52.294;6.760;2024-01-15T13:56:00;2.00;99.90
36816;DHT22;71982;52.294;6.760;2024-01-15T13:58:27;2.00;99.90
36816;DHT22;71982;52.294;6.760;2024-01-15T14:00:54;2.00;99.90
36816;DHT22;71982;52.294;6.760;2024-01-15T14:03:22;1.90;99.90
36816;DHT22;71982;52.294;6.760;2024-01-15T14:05:49;2.00;99.90
36816;DHT22;71982;52.294;6.760;2024-01-15T14:08:16;2.00;99.90
36816;DHT22;71982;52.294;6.760;2024-01-15T14:10:43;2.10;99.90
36816;DHT22;71982;52.294;6.760;2024-01-15T14:13:10;2.20;99.90
36816;DHT22;71982;52.294;6.760;2024-01-15T14:15:37;2.10;99.90
36816;DHT22;71982;52.294;6.760;2024-01-15T14:18:04;2.20;99.90
36816;DHT22;71982;52.294;6.760;2024-01-15T14:20:32;2.70;99.90
36816;DHT22;71982;52.294;6.760;2024-01-15T14:22:59;2.70;99.90
36816;DHT22;71982;52.294;6.760;2024-01-15T14:25:26;2.50;99.90
36816;DHT22;71982;52.294;6.760;2024-01-15T14:27:53;2.30;99.90
36816;DHT22;71982;52.294;6.760;2024-01-15T14:30:19;2.10;99.90
36816;DHT22;71982;52.294;6.760;2024-01-15T14:32:46;2.00;99.90
36816;DHT22;71982;52.294;6.760;2024-01-15T14:35:13;2.00;99.90
36816;DHT22;71982;52.294;6.760;2024-01-15T14:37:41;2.00;99.90
36816;DHT22;71982;52.294;6.760;2024-01-15T14:40:08;2.10;99.90
36816;DHT22;71982;52.294;6.760;2024-01-15T14:42:36;2.30;99.90
36816;DHT22;71982;52.294;6.760;2024-01-15T14:45:03;2.30;99.90
36816;DHT22;71982;52.294;6.760;2024-01-15T14:47:34;2.20;99.90
36816;DHT22;71982;52.294;6.760;2024-01-15T14:50:01;2.20;99.90
36816;DHT22;71982;52.294;6.760;2024-01-15T14:52:28;2.20;99.90
36816;DHT22;71982;52.294;6.760;2024-01-15T14:54:56;2.30;99.90
36816;DHT22;71982;52.294;6.760;2024-01-15T14:57:23;2.40;99.90
36816;DHT22;71982;52.294;6.760;2024-01-15T14:59:49;2.40;99.90
36816;DHT22;71982;52.294;6.760;2024-01-15T15:02:16;2.30;99.90
36816;DHT22;71982;52.294;6.760;2024-01-15T15:04:44;2.20;99.90
36816;DHT22;71982;52.294;6.760;2024-01-15T15:07:10;2.20;99.90
36816;DHT22;71982;52.294;6.760;2024-01-15T15:09:38;2.10;99.90
36816;DHT22;71982;52.294;6.760;2024-01-15T15:12:07;2.10;99.90
36816;DHT22;71982;52.294;6.760;2024-01-15T15:14:34;2.00;99.90
36816;DHT22;71982;52.294;6.760;2024-01-15T15:17:04;2.10;99.90
36816;DHT22;71982;52.294;6.760;2024-01-15T15:19:31;2.00;99.90
36816;DHT22;71982;52.294;6.760;2024-01-15T15:21:58;1.90;99.90
36816;DHT22;71982;52.294;6.760;2024-01-15T15:24:25;1.80;99.90
36816;DHT22;71982;52.294;6.760;2024-01-15T15:26:52;1.70;99.90
36816;DHT22;71982;52.294;6.760;2024-01-15T15:29:20;1.70;99.90
36816;DHT22;71982;52.294;6.760;2024-01-15T15:31:49;1.70;99.90
36816;DHT22;71982;52.294;6.760;2024-01-15T15:34:16;1.60;99.90
36816;DHT22;71982;52.294;6.760;2024-01-15T15:36:42;1.60;99.90
36816;DHT22;71982;52.294;6.760;2024-01-15T15:39:09;1.60;99.90
36816;DHT22;71982;52.294;6.760;2024-01-15T15:41:36;1.60;99.90
36816;DHT22;71982;52.294;6.760;2024-01-15T15:44:03;1.60;99.90
36816;DHT22;71982;52.294;6.760;2024-01-15T15:46:31;1.50;99.90